sensor_id;sensor_type;location;lat;lon;timestamp;P1;durP1;ratioP1;P2;durP2;ratioP2
11854;SDS011;5987;53.140;8.904;2023-07-31T00:01:31;5.13;;;1.67;;
11854;SDS011;5987;53.140;8.904;2023-07-31T00:04:35;4.73;;;1.90;;
11854;SDS011;5987;53.140;8.904;2023-07-31T00:07:39;5.60;;;1.93;;
11854;SDS011;5987;53.140;8.904;2023-07-31T00:10:44;4.67;;;1.77;;
11854;SDS011;5987;53.140;8.904;2023-07-31T00:13:48;6.83;;;2.03;;
11854;SDS011;5987;53.140;8.904;2023-07-31T00:16:51;4.03;;;1.80;;
11854;SDS011;5987;53.140;8.904;2023-07-31T00:19:55;4.20;;;1.67;;
11854;SDS011;5987;53.140;8.904;2023-07-31T00:22:58;6.17;;;2.20;;
11854;SDS011;5987;53.140;8.904;2023-07-31T00:26:03;3.43;;;1.73;;
11854;SDS011;5987;53.140;8.904;2023-07-31T00:29:07;4.37;;;1.73;;
11854;SDS011;5987;53.140;8.904;2023-07-31T00:32:10;4.20;;;1.70;;
11854;SDS011;5987;53.140;8.904;2023-07-31T00:35:14;4.17;;;1.40;;
11854;SDS011;5987;53.140;8.904;2023-07-31T00:38:18;4.33;;;1.70;;
11854;SDS011;5987;53.140;8.904;2023-07-31T00:41:23;2.27;;;1.60;;
11854;SDS011;5987;53.140;8.904;2023-07-31T00:44:26;1.93;;;1.43;;
11854;SDS011;5987;53.140;8.904;2023-07-31T00:47:30;3.10;;;1.27;;
11854;SDS011;5987;53.140;8.904;2023-07-31T00:50:34;5.53;;;1.77;;
11854;SDS011;5987;53.140;8.904;2023-07-31T00:53:38;4.33;;;1.40;;
11854;SDS011;5987;53.140;8.904;2023-07-31T00:56:46;2.87;;;1.13;;
11854;SDS011;5987;53.140;8.904;2023-07-31T00:59:51;2.90;;;1.60;;
11854;SDS011;5987;53.140;8.904;2023-07-31T01:02:54;2.33;;;1.40;;
11854;SDS011;5987;53.140;8.904;2023-07-31T01:06:01;3.07;;;1.60;;
11854;SDS011;5987;53.140;8.904;2023-07-31T01:09:20;5.30;;;1.60;;
11854;SDS011;5987;53.140;8.904;2023-07-31T01:12:39;2.30;;;1.60;;
11854;SDS011;5987;53.140;8.904;2023-07-31T01:15:44;6.03;;;1.90;;
11854;SDS011;5987;53.140;8.904;2023-07-31T01:18:48;3.10;;;1.57;;
11854;SDS011;5987;53.140;8.904;2023-07-31T01:21:58;2.60;;;1.77;;
11854;SDS011;5987;53.140;8.904;2023-07-31T01:29:00;6.33;;;1.67;;
11854;SDS011;5987;53.140;8.904;2023-07-31T01:32:09;2.47;;;1.10;;
11854;SDS011;5987;53.140;8.904;2023-07-31T01:35:15;2.10;;;1.67;;
11854;SDS011;5987;53.140;8.904;2023-07-31T01:38:20;1.77;;;1.10;;
11854;SDS011;5987;53.140;8.904;2023-07-31T01:41:26;2.37;;;1.23;;
11854;SDS011;5987;53.140;8.904;2023-07-31T01:44:29;5.93;;;1.93;;
11854;SDS011;5987;53.140;8.904;2023-07-31T01:47:34;5.60;;;1.93;;
11854;SDS011;5987;53.140;8.904;2023-07-31T01:50:38;4.13;;;1.70;;
11854;SDS011;5987;53.140;8.904;2023-07-31T01:53:41;1.50;;;1.27;;
11854;SDS011;5987;53.140;8.904;2023-07-31T01:56:46;5.13;;;1.70;;
11854;SDS011;5987;53.140;8.904;2023-07-31T01:59:50;2.67;;;1.73;;
11854;SDS011;5987;53.140;8.904;2023-07-31T02:02:54;1.30;;;1.20;;
11854;SDS011;5987;53.140;8.904;2023-07-31T02:05:58;4.97;;;1.47;;
11854;SDS011;5987;53.140;8.904;2023-07-31T02:09:02;2.63;;;1.50;;
11854;SDS011;5987;53.140;8.904;2023-07-31T02:12:07;2.27;;;1.00;;
11854;SDS011;5987;53.140;8.904;2023-07-31T02:15:11;1.67;;;1.27;;
11854;SDS011;5987;53.140;8.904;2023-07-31T02:18:15;2.53;;;1.47;;
11854;SDS011;5987;53.140;8.904;2023-07-31T02:21:18;2.47;;;1.33;;
11854;SDS011;5987;53.140;8.904;2023-07-31T02:24:22;2.13;;;1.37;;
11854;SDS011;5987;53.140;8.904;2023-07-31T02:27:28;2.87;;;1.70;;
11854;SDS011;5987;53.140;8.904;2023-07-31T02:30:31;2.90;;;1.63;;
11854;SDS011;5987;53.140;8.904;2023-07-31T02:33:35;3.13;;;1.60;;
11854;SDS011;5987;53.140;8.904;2023-07-31T02:36:39;2.13;;;1.77;;
11854;SDS011;5987;53.140;8.904;2023-07-31T02:39:45;3.27;;;1.90;;
11854;SDS011;5987;53.140;8.904;2023-07-31T02:42:50;1.70;;;1.60;;
11854;SDS011;5987;53.140;8.904;2023-07-31T02:45:54;3.30;;;1.97;;
11854;SDS011;5987;53.140;8.904;2023-07-31T02:48:57;1.70;;;1.60;;
11854;SDS011;5987;53.140;8.904;2023-07-31T02:52:01;2.80;;;1.60;;
11854;SDS011;5987;53.140;8.904;2023-07-31T02:55:06;5.13;;;1.80;;
11854;SDS011;5987;53.140;8.904;2023-07-31T02:58:11;3.33;;;1.80;;
11854;SDS011;5987;53.140;8.904;2023-07-31T03:01:15;2.87;;;1.43;;
11854;SDS011;5987;53.140;8.904;2023-07-31T03:04:19;4.63;;;2.03;;
11854;SDS011;5987;53.140;8.904;2023-07-31T03:07:22;2.40;;;1.80;;
11854;SDS011;5987;53.140;8.904;2023-07-31T03:10:26;2.03;;;1.80;;
11854;SDS011;5987;53.140;8.904;2023-07-31T03:13:31;3.00;;;1.60;;
11854;SDS011;5987;53.140;8.904;2023-07-31T03:16:34;2.93;;;1.83;;
11854;SDS011;5987;53.140;8.904;2023-07-31T03:19:39;2.50;;;1.40;;
11854;SDS011;5987;53.140;8.904;2023-07-31T03:22:43;2.27;;;1.73;;
11854;SDS011;5987;53.140;8.904;2023-07-31T03:25:55;4.37;;;1.77;;
11854;SDS011;5987;53.140;8.904;2023-07-31T03:29:01;1.63;;;1.53;;
11854;SDS011;5987;53.140;8.904;2023-07-31T03:32:05;3.03;;;2.40;;
11854;SDS011;5987;53.140;8.904;2023-07-31T03:35:09;4.37;;;1.60;;
11854;SDS011;5987;53.140;8.904;2023-07-31T03:38:12;3.73;;;2.50;;
11854;SDS011;5987;53.140;8.904;2023-07-31T03:41:16;2.50;;;1.80;;
11854;SDS011;5987;53.140;8.904;2023-07-31T03:44:21;2.37;;;2.17;;
11854;SDS011;5987;53.140;8.904;2023-07-31T03:47:25;2.20;;;1.70;;
11854;SDS011;5987;53.140;8.904;2023-07-31T03:50:29;2.00;;;1.80;;
11854;SDS011;5987;53.140;8.904;2023-07-31T03:53:33;3.33;;;2.00;;
11854;SDS011;5987;53.140;8.904;2023-07-31T03:56:37;2.27;;;1.60;;
11854;SDS011;5987;53.140;8.904;2023-07-31T03:59:42;3.03;;;1.80;;
11854;SDS011;5987;53.140;8.904;2023-07-31T04:02:46;1.90;;;1.70;;
11854;SDS011;5987;53.140;8.904;2023-07-31T04:05:49;3.57;;;1.83;;
11854;SDS011;5987;53.140;8.904;2023-07-31T04:08:53;4.27;;;1.90;;
11854;SDS011;5987;53.140;8.904;2023-07-31T04:11:56;2.37;;;1.67;;
11854;SDS011;5987;53.140;8.904;2023-07-31T04:15:02;4.17;;;2.00;;
11854;SDS011;5987;53.140;8.904;2023-07-31T04:18:06;2.50;;;2.00;;
11854;SDS011;5987;53.140;8.904;2023-07-31T04:21:09;2.03;;;1.80;;
11854;SDS011;5987;53.140;8.904;2023-07-31T04:24:13;3.90;;;2.33;;
11854;SDS011;5987;53.140;8.904;2023-07-31T04:27:17;3.50;;;2.37;;
11854;SDS011;5987;53.140;8.904;2023-07-31T04:30:22;3.53;;;2.50;;
11854;SDS011;5987;53.140;8.904;2023-07-31T04:33:27;3.67;;;1.87;;
11854;SDS011;5987;53.140;8.904;2023-07-31T04:36:30;3.53;;;2.03;;
11854;SDS011;5987;53.140;8.904;2023-07-31T04:39:34;3.80;;;2.50;;
11854;SDS011;5987;53.140;8.904;2023-07-31T04:42:38;1.93;;;1.70;;
11854;SDS011;5987;53.140;8.904;2023-07-31T04:45:44;2.30;;;1.87;;
11854;SDS011;5987;53.140;8.904;2023-07-31T04:48:49;4.83;;;2.40;;
11854;SDS011;5987;53.140;8.904;2023-07-31T04:51:53;2.47;;;1.63;;
11854;SDS011;5987;53.140;8.904;2023-07-31T04:54:56;3.10;;;1.90;;
11854;SDS011;5987;53.140;8.904;2023-07-31T04:58:00;2.10;;;1.90;;
11854;SDS011;5987;53.140;8.904;2023-07-31T05:01:05;2.53;;;1.70;;
11854;SDS011;5987;53.140;8.904;2023-07-31T05:04:09;2.63;;;2.07;;
11854;SDS011;5987;53.140;8.904;2023-07-31T05:07:12;2.67;;;2.00;;
11854;SDS011;5987;53.140;8.904;2023-07-31T05:10:17;2.47;;;1.70;;
11854;SDS011;5987;53.140;8.904;2023-07-31T05:13:21;4.90;;;1.73;;
11854;SDS011;5987;53.140;8.904;2023-07-31T05:16:25;2.30;;;1.30;;
11854;SDS011;5987;53.140;8.904;2023-07-31T05:19:31;2.50;;;1.43;;
11854;SDS011;5987;53.140;8.904;2023-07-31T05:22:34;1.70;;;1.40;;
11854;SDS011;5987;53.140;8.904;2023-07-31T05:25:38;1.70;;;1.53;;
11854;SDS011;5987;53.140;8.904;2023-07-31T05:28:41;2.27;;;1.47;;
11854;SDS011;5987;53.140;8.904;2023-07-31T05:31:46;2.40;;;1.53;;
11854;SDS011;5987;53.140;8.904;2023-07-31T05:34:50;1.70;;;1.30;;
11854;SDS011;5987;53.140;8.904;2023-07-31T05:37:54;1.00;;;1.00;;
11854;SDS011;5987;53.140;8.904;2023-07-31T05:40:58;1.13;;;1.03;;
11854;SDS011;5987;53.140;8.904;2023-07-31T05:44:01;1.70;;;1.10;;
11854;SDS011;5987;53.140;8.904;2023-07-31T05:47:07;1.43;;;1.00;;
11854;SDS011;5987;53.140;8.904;2023-07-31T05:50:11;1.40;;;0.93;;
11854;SDS011;5987;53.140;8.904;2023-07-31T05:53:15;1.50;;;1.17;;
11854;SDS011;5987;53.140;8.904;2023-07-31T05:56:19;1.20;;;0.90;;
11854;SDS011;5987;53.140;8.904;2023-07-31T05:59:23;1.90;;;0.87;;
11854;SDS011;5987;53.140;8.904;2023-07-31T06:02:28;0.80;;;0.70;;
11854;SDS011;5987;53.140;8.904;2023-07-31T06:05:34;1.07;;;0.63;;
11854;SDS011;5987;53.140;8.904;2023-07-31T06:08:38;0.60;;;0.57;;
11854;SDS011;5987;53.140;8.904;2023-07-31T06:11:42;1.33;;;1.10;;
11854;SDS011;5987;53.140;8.904;2023-07-31T06:14:46;1.13;;;0.77;;
11854;SDS011;5987;53.140;8.904;2023-07-31T06:17:51;0.77;;;0.70;;
11854;SDS011;5987;53.140;8.904;2023-07-31T06:20:56;1.10;;;0.80;;
11854;SDS011;5987;53.140;8.904;2023-07-31T06:23:59;0.80;;;0.80;;
11854;SDS011;5987;53.140;8.904;2023-07-31T06:27:03;0.93;;;0.73;;
11854;SDS011;5987;53.140;8.904;2023-07-31T06:30:08;2.53;;;0.77;;
11854;SDS011;5987;53.140;8.904;2023-07-31T06:33:14;0.77;;;0.77;;
11854;SDS011;5987;53.140;8.904;2023-07-31T06:36:17;0.70;;;0.60;;
11854;SDS011;5987;53.140;8.904;2023-07-31T06:39:21;0.83;;;0.70;;
11854;SDS011;5987;53.140;8.904;2023-07-31T06:42:25;0.53;;;0.50;;
11854;SDS011;5987;53.140;8.904;2023-07-31T06:45:29;1.50;;;0.90;;
11854;SDS011;5987;53.140;8.904;2023-07-31T06:48:34;0.60;;;0.60;;
11854;SDS011;5987;53.140;8.904;2023-07-31T06:51:38;0.80;;;0.60;;
11854;SDS011;5987;53.140;8.904;2023-07-31T06:54:42;0.60;;;0.60;;
11854;SDS011;5987;53.140;8.904;2023-07-31T06:57:45;0.63;;;0.60;;
11854;SDS011;5987;53.140;8.904;2023-07-31T07:00:50;1.03;;;0.70;;
11854;SDS011;5987;53.140;8.904;2023-07-31T07:03:55;1.00;;;0.70;;
11854;SDS011;5987;53.140;8.904;2023-07-31T07:06:58;0.33;;;0.33;;
11854;SDS011;5987;53.140;8.904;2023-07-31T07:10:02;0.70;;;0.40;;
11854;SDS011;5987;53.140;8.904;2023-07-31T07:13:07;0.83;;;0.50;;
11854;SDS011;5987;53.140;8.904;2023-07-31T07:16:11;2.67;;;0.90;;
11854;SDS011;5987;53.140;8.904;2023-07-31T07:19:16;2.87;;;1.20;;
11854;SDS011;5987;53.140;8.904;2023-07-31T07:22:19;1.10;;;0.70;;
11854;SDS011;5987;53.140;8.904;2023-07-31T07:25:23;0.60;;;0.50;;
11854;SDS011;5987;53.140;8.904;2023-07-31T07:28:27;2.33;;;0.77;;
11854;SDS011;5987;53.140;8.904;2023-07-31T07:31:31;0.73;;;0.50;;
11854;SDS011;5987;53.140;8.904;2023-07-31T07:34:36;1.23;;;0.60;;
11854;SDS011;5987;53.140;8.904;2023-07-31T07:37:40;0.70;;;0.70;;
11854;SDS011;5987;53.140;8.904;2023-07-31T07:40:44;4.43;;;1.13;;
11854;SDS011;5987;53.140;8.904;2023-07-31T07:43:48;2.40;;;1.00;;
11854;SDS011;5987;53.140;8.904;2023-07-31T07:46:52;1.87;;;1.27;;
11854;SDS011;5987;53.140;8.904;2023-07-31T07:49:58;1.10;;;0.90;;
11854;SDS011;5987;53.140;8.904;2023-07-31T07:53:01;5.20;;;1.30;;
11854;SDS011;5987;53.140;8.904;2023-07-31T07:56:05;1.53;;;1.20;;
11854;SDS011;5987;53.140;8.904;2023-07-31T07:59:08;2.50;;;1.30;;
11854;SDS011;5987;53.140;8.904;2023-07-31T08:02:12;2.20;;;1.53;;
11854;SDS011;5987;53.140;8.904;2023-07-31T08:05:17;4.37;;;2.20;;
11854;SDS011;5987;53.140;8.904;2023-07-31T08:08:21;4.73;;;2.27;;
11854;SDS011;5987;53.140;8.904;2023-07-31T08:11:24;4.47;;;2.83;;
11854;SDS011;5987;53.140;8.904;2023-07-31T08:14:28;3.83;;;2.50;;
11854;SDS011;5987;53.140;8.904;2023-07-31T08:17:34;7.27;;;3.47;;
11854;SDS011;5987;53.140;8.904;2023-07-31T08:20:39;10.00;;;4.60;;
11854;SDS011;5987;53.140;8.904;2023-07-31T08:23:42;11.37;;;4.93;;
11854;SDS011;5987;53.140;8.904;2023-07-31T08:26:46;9.33;;;4.70;;
11854;SDS011;5987;53.140;8.904;2023-07-31T08:29:51;10.77;;;6.00;;
11854;SDS011;5987;53.140;8.904;2023-07-31T08:32:55;13.70;;;5.60;;
11854;SDS011;5987;53.140;8.904;2023-07-31T08:36:00;10.53;;;5.13;;
11854;SDS011;5987;53.140;8.904;2023-07-31T08:39:04;14.20;;;4.90;;
11854;SDS011;5987;53.140;8.904;2023-07-31T08:42:08;12.07;;;5.90;;
11854;SDS011;5987;53.140;8.904;2023-07-31T08:45:13;10.20;;;5.20;;
11854;SDS011;5987;53.140;8.904;2023-07-31T08:48:20;12.53;;;5.87;;
11854;SDS011;5987;53.140;8.904;2023-07-31T08:51:27;12.33;;;5.30;;
11854;SDS011;5987;53.140;8.904;2023-07-31T08:54:32;11.50;;;5.43;;
11854;SDS011;5987;53.140;8.904;2023-07-31T08:57:36;9.70;;;5.80;;
11854;SDS011;5987;53.140;8.904;2023-07-31T09:00:41;14.23;;;6.10;;
11854;SDS011;5987;53.140;8.904;2023-07-31T09:03:46;9.10;;;5.27;;
11854;SDS011;5987;53.140;8.904;2023-07-31T09:06:56;7.53;;;5.67;;
11854;SDS011;5987;53.140;8.904;2023-07-31T09:10:06;10.73;;;5.80;;
11854;SDS011;5987;53.140;8.904;2023-07-31T09:13:10;14.90;;;6.30;;
11854;SDS011;5987;53.140;8.904;2023-07-31T09:16:15;11.60;;;5.60;;
11854;SDS011;5987;53.140;8.904;2023-07-31T09:19:24;10.40;;;5.80;;
11854;SDS011;5987;53.140;8.904;2023-07-31T09:22:34;10.87;;;5.57;;
11854;SDS011;5987;53.140;8.904;2023-07-31T09:25:38;9.70;;;4.73;;
11854;SDS011;5987;53.140;8.904;2023-07-31T09:28:45;14.03;;;5.10;;
11854;SDS011;5987;53.140;8.904;2023-07-31T09:31:50;8.53;;;4.33;;
11854;SDS011;5987;53.140;8.904;2023-07-31T09:34:54;8.27;;;4.30;;
11854;SDS011;5987;53.140;8.904;2023-07-31T09:38:00;10.37;;;4.80;;
11854;SDS011;5987;53.140;8.904;2023-07-31T09:41:08;9.57;;;4.13;;
11854;SDS011;5987;53.140;8.904;2023-07-31T09:44:12;8.00;;;4.03;;
11854;SDS011;5987;53.140;8.904;2023-07-31T09:47:22;12.40;;;4.40;;
11854;SDS011;5987;53.140;8.904;2023-07-31T09:50:27;8.17;;;4.40;;
11854;SDS011;5987;53.140;8.904;2023-07-31T09:53:33;7.97;;;3.97;;
11854;SDS011;5987;53.140;8.904;2023-07-31T09:56:38;5.80;;;3.63;;
11854;SDS011;5987;53.140;8.904;2023-07-31T09:59:46;4.17;;;3.13;;
11854;SDS011;5987;53.140;8.904;2023-07-31T10:02:51;5.57;;;2.87;;
11854;SDS011;5987;53.140;8.904;2023-07-31T10:05:56;6.90;;;3.33;;
11854;SDS011;5987;53.140;8.904;2023-07-31T10:09:03;5.17;;;2.83;;
11854;SDS011;5987;53.140;8.904;2023-07-31T10:12:10;3.97;;;2.87;;
11854;SDS011;5987;53.140;8.904;2023-07-31T10:15:19;4.90;;;3.33;;
11854;SDS011;5987;53.140;8.904;2023-07-31T10:18:23;7.37;;;2.40;;
11854;SDS011;5987;53.140;8.904;2023-07-31T10:21:28;5.07;;;2.50;;
11854;SDS011;5987;53.140;8.904;2023-07-31T10:24:37;3.57;;;2.17;;
11854;SDS011;5987;53.140;8.904;2023-07-31T10:27:42;7.17;;;2.40;;
11854;SDS011;5987;53.140;8.904;2023-07-31T10:30:46;3.47;;;2.40;;
11854;SDS011;5987;53.140;8.904;2023-07-31T10:33:51;6.50;;;2.57;;
11854;SDS011;5987;53.140;8.904;2023-07-31T10:40:27;4.33;;;1.93;;
11854;SDS011;5987;53.140;8.904;2023-07-31T10:43:32;3.77;;;2.40;;
11854;SDS011;5987;53.140;8.904;2023-07-31T10:46:36;2.07;;;1.87;;
11854;SDS011;5987;53.140;8.904;2023-07-31T10:49:40;3.17;;;1.90;;
11854;SDS011;5987;53.140;8.904;2023-07-31T10:52:48;3.67;;;1.73;;
11854;SDS011;5987;53.140;8.904;2023-07-31T10:55:56;5.53;;;1.40;;
11854;SDS011;5987;53.140;8.904;2023-07-31T10:59:02;2.00;;;1.57;;
11854;SDS011;5987;53.140;8.904;2023-07-31T11:02:06;3.30;;;1.93;;
11854;SDS011;5987;53.140;8.904;2023-07-31T11:05:43;1.57;;;1.10;;
11854;SDS011;5987;53.140;8.904;2023-07-31T11:08:53;2.27;;;1.10;;
11854;SDS011;5987;53.140;8.904;2023-07-31T11:11:58;1.37;;;1.07;;
11854;SDS011;5987;53.140;8.904;2023-07-31T11:15:19;3.50;;;1.00;;
11854;SDS011;5987;53.140;8.904;2023-07-31T11:18:22;0.73;;;0.70;;
11854;SDS011;5987;53.140;8.904;2023-07-31T11:21:28;1.53;;;0.80;;
11854;SDS011;5987;53.140;8.904;2023-07-31T11:24:32;1.13;;;1.03;;
11854;SDS011;5987;53.140;8.904;2023-07-31T11:27:40;1.20;;;0.90;;
11854;SDS011;5987;53.140;8.904;2023-07-31T11:30:45;1.10;;;1.00;;
11854;SDS011;5987;53.140;8.904;2023-07-31T11:33:50;1.10;;;0.80;;
11854;SDS011;5987;53.140;8.904;2023-07-31T11:36:53;0.63;;;0.60;;
11854;SDS011;5987;53.140;8.904;2023-07-31T11:40:00;0.83;;;0.80;;
11854;SDS011;5987;53.140;8.904;2023-07-31T11:43:06;1.43;;;0.50;;
11854;SDS011;5987;53.140;8.904;2023-07-31T11:46:11;0.50;;;0.50;;
11854;SDS011;5987;53.140;8.904;2023-07-31T11:49:16;0.30;;;0.30;;
11854;SDS011;5987;53.140;8.904;2023-07-31T11:52:20;0.60;;;0.60;;
11854;SDS011;5987;53.140;8.904;2023-07-31T11:55:26;0.93;;;0.53;;
11854;SDS011;5987;53.140;8.904;2023-07-31T11:58:32;0.87;;;0.40;;
11854;SDS011;5987;53.140;8.904;2023-07-31T12:01:39;0.50;;;0.50;;
11854;SDS011;5987;53.140;8.904;2023-07-31T12:04:45;1.97;;;0.43;;
11854;SDS011;5987;53.140;8.904;2023-07-31T12:07:51;0.53;;;0.40;;
11854;SDS011;5987;53.140;8.904;2023-07-31T12:11:02;0.30;;;0.30;;
11854;SDS011;5987;53.140;8.904;2023-07-31T12:14:09;0.77;;;0.50;;
11854;SDS011;5987;53.140;8.904;2023-07-31T12:17:24;0.40;;;0.40;;
11854;SDS011;5987;53.140;8.904;2023-07-31T12:20:29;0.30;;;0.30;;
11854;SDS011;5987;53.140;8.904;2023-07-31T12:23:38;1.17;;;0.50;;
11854;SDS011;5987;53.140;8.904;2023-07-31T12:26:45;0.50;;;0.50;;
11854;SDS011;5987;53.140;8.904;2023-07-31T12:29:52;0.70;;;0.70;;
11854;SDS011;5987;53.140;8.904;2023-07-31T12:32:55;0.50;;;0.40;;
11854;SDS011;5987;53.140;8.904;2023-07-31T12:36:00;1.03;;;0.50;;
11854;SDS011;5987;53.140;8.904;2023-07-31T12:39:06;0.30;;;0.30;;
11854;SDS011;5987;53.140;8.904;2023-07-31T12:42:11;1.23;;;0.50;;
11854;SDS011;5987;53.140;8.904;2023-07-31T12:45:16;0.80;;;0.60;;
11854;SDS011;5987;53.140;8.904;2023-07-31T12:48:22;0.83;;;0.63;;
11854;SDS011;5987;53.140;8.904;2023-07-31T12:51:27;3.70;;;0.60;;
11854;SDS011;5987;53.140;8.904;2023-07-31T12:54:36;0.60;;;0.60;;
11854;SDS011;5987;53.140;8.904;2023-07-31T12:57:44;0.93;;;0.50;;
11854;SDS011;5987;53.140;8.904;2023-07-31T13:00:52;0.97;;;0.80;;
11854;SDS011;5987;53.140;8.904;2023-07-31T13:03:56;0.60;;;0.60;;
11854;SDS011;5987;53.140;8.904;2023-07-31T13:07:01;0.60;;;0.60;;
11854;SDS011;5987;53.140;8.904;2023-07-31T13:10:05;0.73;;;0.70;;
11854;SDS011;5987;53.140;8.904;2023-07-31T13:13:11;1.10;;;0.90;;
11854;SDS011;5987;53.140;8.904;2023-07-31T13:16:18;1.00;;;0.90;;
11854;SDS011;5987;53.140;8.904;2023-07-31T13:19:24;1.27;;;0.90;;
11854;SDS011;5987;53.140;8.904;2023-07-31T13:22:27;1.30;;;0.90;;
11854;SDS011;5987;53.140;8.904;2023-07-31T13:25:31;1.23;;;0.80;;
11854;SDS011;5987;53.140;8.904;2023-07-31T13:28:36;1.90;;;0.90;;
11854;SDS011;5987;53.140;8.904;2023-07-31T13:31:42;1.03;;;0.90;;
11854;SDS011;5987;53.140;8.904;2023-07-31T13:34:46;0.70;;;0.70;;
11854;SDS011;5987;53.140;8.904;2023-07-31T13:37:51;0.90;;;0.90;;
11854;SDS011;5987;53.140;8.904;2023-07-31T13:40:56;1.07;;;0.97;;
11854;SDS011;5987;53.140;8.904;2023-07-31T13:44:00;1.03;;;1.00;;
11854;SDS011;5987;53.140;8.904;2023-07-31T13:47:07;1.20;;;0.77;;
11854;SDS011;5987;53.140;8.904;2023-07-31T13:50:12;1.87;;;1.10;;
11854;SDS011;5987;53.140;8.904;2023-07-31T13:53:17;1.40;;;1.30;;
11854;SDS011;5987;53.140;8.904;2023-07-31T13:56:20;1.57;;;1.47;;
11854;SDS011;5987;53.140;8.904;2023-07-31T13:59:24;3.50;;;1.47;;
11854;SDS011;5987;53.140;8.904;2023-07-31T14:02:31;1.83;;;1.57;;
11854;SDS011;5987;53.140;8.904;2023-07-31T14:05:35;2.40;;;1.60;;
11854;SDS011;5987;53.140;8.904;2023-07-31T14:08:39;3.43;;;2.00;;
11854;SDS011;5987;53.140;8.904;2023-07-31T14:11:43;5.30;;;1.70;;
11854;SDS011;5987;53.140;8.904;2023-07-31T14:14:48;2.33;;;1.50;;
11854;SDS011;5987;53.140;8.904;2023-07-31T14:17:57;2.47;;;2.07;;
11854;SDS011;5987;53.140;8.904;2023-07-31T14:21:03;2.43;;;1.90;;
11854;SDS011;5987;53.140;8.904;2023-07-31T14:24:07;3.33;;;2.27;;
11854;SDS011;5987;53.140;8.904;2023-07-31T14:27:14;3.80;;;2.23;;
11854;SDS011;5987;53.140;8.904;2023-07-31T14:30:18;5.00;;;2.60;;
11854;SDS011;5987;53.140;8.904;2023-07-31T14:33:23;3.27;;;2.23;;
11854;SDS011;5987;53.140;8.904;2023-07-31T14:36:27;4.10;;;2.80;;
11854;SDS011;5987;53.140;8.904;2023-07-31T14:39:31;4.07;;;3.13;;
11854;SDS011;5987;53.140;8.904;2023-07-31T14:42:35;6.23;;;3.10;;
11854;SDS011;5987;53.140;8.904;2023-07-31T14:45:39;6.90;;;3.47;;
11854;SDS011;5987;53.140;8.904;2023-07-31T14:48:45;3.53;;;2.83;;
11854;SDS011;5987;53.140;8.904;2023-07-31T14:51:49;4.37;;;3.77;;
11854;SDS011;5987;53.140;8.904;2023-07-31T14:54:53;5.03;;;4.30;;
11854;SDS011;5987;53.140;8.904;2023-07-31T14:57:57;5.30;;;3.70;;
11854;SDS011;5987;53.140;8.904;2023-07-31T15:01:05;8.03;;;4.87;;
11854;SDS011;5987;53.140;8.904;2023-07-31T15:04:10;6.23;;;4.07;;
11854;SDS011;5987;53.140;8.904;2023-07-31T15:07:14;7.43;;;5.00;;
11854;SDS011;5987;53.140;8.904;2023-07-31T15:10:18;5.73;;;4.23;;
11854;SDS011;5987;53.140;8.904;2023-07-31T15:13:23;4.43;;;3.67;;
11854;SDS011;5987;53.140;8.904;2023-07-31T15:16:27;8.80;;;5.10;;
11854;SDS011;5987;53.140;8.904;2023-07-31T15:19:34;8.43;;;4.27;;
11854;SDS011;5987;53.140;8.904;2023-07-31T15:22:39;8.43;;;5.33;;
11854;SDS011;5987;53.140;8.904;2023-07-31T15:25:43;6.47;;;4.70;;
11854;SDS011;5987;53.140;8.904;2023-07-31T15:28:48;7.63;;;4.87;;
11854;SDS011;5987;53.140;8.904;2023-07-31T15:31:58;5.47;;;4.40;;
11854;SDS011;5987;53.140;8.904;2023-07-31T15:35:03;6.20;;;4.37;;
11854;SDS011;5987;53.140;8.904;2023-07-31T15:38:09;5.83;;;4.03;;
11854;SDS011;5987;53.140;8.904;2023-07-31T15:41:12;5.47;;;3.97;;
11854;SDS011;5987;53.140;8.904;2023-07-31T15:44:16;7.83;;;4.30;;
11854;SDS011;5987;53.140;8.904;2023-07-31T15:47:20;4.00;;;3.43;;
11854;SDS011;5987;53.140;8.904;2023-07-31T15:50:25;4.57;;;3.40;;
11854;SDS011;5987;53.140;8.904;2023-07-31T15:53:29;5.10;;;3.80;;
11854;SDS011;5987;53.140;8.904;2023-07-31T15:56:33;3.47;;;3.17;;
11854;SDS011;5987;53.140;8.904;2023-07-31T15:59:37;3.60;;;3.30;;
11854;SDS011;5987;53.140;8.904;2023-07-31T16:02:41;4.67;;;3.40;;
11854;SDS011;5987;53.140;8.904;2023-07-31T16:05:46;3.93;;;3.47;;
11854;SDS011;5987;53.140;8.904;2023-07-31T16:08:50;7.50;;;3.70;;
11854;SDS011;5987;53.140;8.904;2023-07-31T16:11:56;5.60;;;4.10;;
11854;SDS011;5987;53.140;8.904;2023-07-31T16:14:59;5.03;;;3.37;;
11854;SDS011;5987;53.140;8.904;2023-07-31T16:18:03;5.00;;;3.93;;
11854;SDS011;5987;53.140;8.904;2023-07-31T16:21:09;5.87;;;3.63;;
11854;SDS011;5987;53.140;8.904;2023-07-31T16:24:15;5.87;;;4.27;;
11854;SDS011;5987;53.140;8.904;2023-07-31T16:27:19;10.63;;;4.50;;
11854;SDS011;5987;53.140;8.904;2023-07-31T16:30:25;3.97;;;3.57;;
11854;SDS011;5987;53.140;8.904;2023-07-31T16:33:29;5.23;;;3.77;;
11854;SDS011;5987;53.140;8.904;2023-07-31T16:36:36;4.70;;;3.00;;
11854;SDS011;5987;53.140;8.904;2023-07-31T16:39:40;3.27;;;2.57;;
11854;SDS011;5987;53.140;8.904;2023-07-31T16:42:48;6.47;;;2.90;;
11854;SDS011;5987;53.140;8.904;2023-07-31T16:45:51;4.00;;;2.40;;
11854;SDS011;5987;53.140;8.904;2023-07-31T16:48:55;5.20;;;2.53;;
11854;SDS011;5987;53.140;8.904;2023-07-31T16:52:01;3.80;;;2.60;;
11854;SDS011;5987;53.140;8.904;2023-07-31T16:55:05;2.60;;;2.27;;
11854;SDS011;5987;53.140;8.904;2023-07-31T16:58:09;2.33;;;2.10;;
11854;SDS011;5987;53.140;8.904;2023-07-31T17:01:13;7.70;;;2.60;;
11854;SDS011;5987;53.140;8.904;2023-07-31T17:04:17;4.00;;;2.20;;
11854;SDS011;5987;53.140;8.904;2023-07-31T17:07:22;3.23;;;2.50;;
11854;SDS011;5987;53.140;8.904;2023-07-31T17:10:26;2.33;;;2.13;;
11854;SDS011;5987;53.140;8.904;2023-07-31T17:13:30;2.17;;;2.00;;
11854;SDS011;5987;53.140;8.904;2023-07-31T17:16:34;5.93;;;2.43;;
11854;SDS011;5987;53.140;8.904;2023-07-31T17:19:38;4.13;;;2.93;;
11854;SDS011;5987;53.140;8.904;2023-07-31T17:22:43;2.93;;;2.60;;
11854;SDS011;5987;53.140;8.904;2023-07-31T17:25:49;3.43;;;2.40;;
11854;SDS011;5987;53.140;8.904;2023-07-31T17:28:53;4.90;;;2.77;;
11854;SDS011;5987;53.140;8.904;2023-07-31T17:31:57;4.77;;;2.87;;
11854;SDS011;5987;53.140;8.904;2023-07-31T17:35:00;3.17;;;2.23;;
11854;SDS011;5987;53.140;8.904;2023-07-31T17:38:06;5.00;;;3.20;;
11854;SDS011;5987;53.140;8.904;2023-07-31T17:41:10;7.07;;;2.90;;
11854;SDS011;5987;53.140;8.904;2023-07-31T17:44:13;4.37;;;3.10;;
11854;SDS011;5987;53.140;8.904;2023-07-31T17:47:17;3.53;;;3.10;;
11854;SDS011;5987;53.140;8.904;2023-07-31T17:50:21;4.70;;;3.07;;
11854;SDS011;5987;53.140;8.904;2023-07-31T17:53:26;6.10;;;3.23;;
11854;SDS011;5987;53.140;8.904;2023-07-31T17:56:30;4.33;;;2.67;;
11854;SDS011;5987;53.140;8.904;2023-07-31T17:59:35;6.07;;;2.97;;
11854;SDS011;5987;53.140;8.904;2023-07-31T18:02:40;5.73;;;3.37;;
11854;SDS011;5987;53.140;8.904;2023-07-31T18:05:44;8.80;;;4.10;;
11854;SDS011;5987;53.140;8.904;2023-07-31T18:08:49;6.57;;;3.33;;
11854;SDS011;5987;53.140;8.904;2023-07-31T18:11:53;8.73;;;3.73;;
11854;SDS011;5987;53.140;8.904;2023-07-31T18:14:58;5.73;;;3.50;;
11854;SDS011;5987;53.140;8.904;2023-07-31T18:18:02;5.07;;;3.50;;
11854;SDS011;5987;53.140;8.904;2023-07-31T18:21:05;6.40;;;3.00;;
11854;SDS011;5987;53.140;8.904;2023-07-31T18:24:10;3.97;;;3.23;;
11854;SDS011;5987;53.140;8.904;2023-07-31T18:27:14;4.97;;;3.90;;
11854;SDS011;5987;53.140;8.904;2023-07-31T18:30:19;4.73;;;3.13;;
11854;SDS011;5987;53.140;8.904;2023-07-31T18:33:23;6.90;;;4.17;;
11854;SDS011;5987;53.140;8.904;2023-07-31T18:36:27;3.87;;;3.47;;
11854;SDS011;5987;53.140;8.904;2023-07-31T18:39:32;5.83;;;3.37;;
11854;SDS011;5987;53.140;8.904;2023-07-31T18:42:36;3.87;;;3.17;;
11854;SDS011;5987;53.140;8.904;2023-07-31T18:45:40;4.00;;;2.63;;
11854;SDS011;5987;53.140;8.904;2023-07-31T18:48:43;4.47;;;3.10;;
11854;SDS011;5987;53.140;8.904;2023-07-31T18:51:48;2.37;;;2.17;;
11854;SDS011;5987;53.140;8.904;2023-07-31T18:54:53;2.83;;;2.20;;
11854;SDS011;5987;53.140;8.904;2023-07-31T18:57:56;1.80;;;1.40;;